Reklama

Seznam meteostanic a jejich METAR

Vyhledat místa podle abecedy:
A B C D E F G H I J K L M N O P Q R S T U V W X Y Z

Filtrovat:

ID stanice:
a/nebo
Název místa (fulltext):
 
Místo (ID)Naposledy načteno 
Brno - Tuřany (Brno/Tu) 20.11.2019 02:00 UTC Zobrazit data
Místo: Brno - Tuřany
Teplota: 7 °C (pocitová: 2 °C)
Vítr: 3 m/s z(e) 70°
Počasí: skorojasno
Dohlednost: 20 km
Zákl. oblačnosti: 1/8 600 m
Vlhkost: 93%
Červená - Opava (Cervena/uL) 20.11.2019 02:00 UTC Zobrazit data
Místo: Červená - Opava
Teplota: 7 °C (pocitová: 2 °C)
Vítr: 3 m/s z(e) 170°
Počasí: zataženo
Dohlednost: 25 km
Zákl. oblačnosti: 8/8 390 m
Vlhkost: 87%
České Budějovice (C.Budej/po) 20.11.2019 02:00 UTC Zobrazit data
Místo: České Budějovice
Teplota: 3 °C (pocitová: -0.6 °C)
Vítr: 1 m/s z(e) 190°
Počasí: zataženo
Dohlednost: 10 km
Zákl. oblačnosti: 8/8 330 m
Vlhkost: 93%
Cheb (Cheb) 20.11.2019 02:00 UTC Zobrazit data
Místo: Cheb
Teplota: 1 °C (pocitová: 13.8 °C)
Vítr: 0 m/s z(e) 0°
Počasí: zataženo
Dohlednost: 10 km
Zákl. oblačnosti: 1/8 180 m;7/8 1110 m
Vlhkost: 100%
Chotusice - Čáslav (Caslav) 20.11.2019 02:00 UTC Zobrazit data
Místo: Chotusice - Čáslav
Teplota: 9 °C (pocitová: 6.8 °C)
Vítr: 1 m/s z(e) 140°
Počasí: zataženo
Dohlednost: 10 km
Zákl. oblačnosti: 8/8 570 m
Vlhkost: 87%
Churáňov (Churanov) 20.11.2019 02:00 UTC Zobrazit data
Místo: Churáňov
Teplota: 0 °C (pocitová: 13.1 °C)
Vítr: 0 m/s z(e) 0°
Počasí: zataženo
Dohlednost: 400 m
Zákl. oblačnosti: 8/8 30 m
Vlhkost: 100%
Doksany - Litoměřice (Doksany) 20.11.2019 02:00 UTC Zobrazit data
Místo: Doksany - Litoměřice
Teplota: 6 °C (pocitová: 1.8 °C)
Vítr: 2 m/s z(e) 290°
Počasí: zataženo
Dohlednost: 7 km
Zákl. oblačnosti: 8/8 330 m
Vlhkost: 93%
Dukovany (Dukovany) 20.11.2019 02:00 UTC Zobrazit data
Místo: Dukovany
Teplota: 8 °C (pocitová: 0.8 °C)
Vítr: 8 m/s z(e) 100°
Počasí: zataženo
Dohlednost: 4500 m
Zákl. oblačnosti: 8/8 120 m
Vlhkost: 93%
Holešov (Holesov) 20.11.2019 02:00 UTC Zobrazit data
Místo: Holešov
Teplota: 7 °C (pocitová: 3.1 °C)
Vítr: 2 m/s z(e) 170°
Počasí: zataženo
Dohlednost: 21 km
Zákl. oblačnosti: 1/8 6600 m;8/8 9000 m
Vlhkost: 81%
Kadaň - Tušimice (Tusimice) 20.11.2019 02:00 UTC Zobrazit data
Místo: Kadaň - Tušimice
Teplota: 5 °C (pocitová: 0.5 °C)
Vítr: 2 m/s z(e) 270°
Počasí: zataženo
Dohlednost: 30 km
Zákl. oblačnosti: 8/8 360 m
Vlhkost: 87%
Karlovy Vary (K.Vary) 20.11.2019 02:00 UTC Zobrazit data
Místo: Karlovy Vary
Teplota: 2 °C (pocitová: -1.8 °C)
Vítr: 1 m/s z(e) 290°
Počasí: skoro zataženo
Dohlednost: 15 km
Zákl. oblačnosti: 5/8 480 m;4/8 870 m
Vlhkost: 100%
Kocelovice (Kocelovice) 20.11.2019 02:00 UTC Zobrazit data
Místo: Kocelovice
Teplota: 3 °C (pocitová: -2.1 °C)
Vítr: 2 m/s z(e) 240°
Počasí: zataženo
Dohlednost: 4700 m
Zákl. oblačnosti: 8/8 150 m
Vlhkost: 93%
Kopisty (Kopisty) 19.11.2019 21:00 UTC Zobrazit data
Místo: Kopisty
Teplota: 5 °C (pocitová: 16.2 °C)
Vítr: 0 m/s z(e) 0°
Počasí: zataženo
Dohlednost: 20 km
Zákl. oblačnosti: 8/8 750 m
Vlhkost: 93%
Kostelní Myslová (K.Myslova) 20.11.2019 02:00 UTC Zobrazit data
Místo: Kostelní Myslová
Teplota: 6 °C (pocitová: -0.2 °C)
Vítr: 4 m/s z(e) 150°
Počasí: zataženo
Dohlednost: 5 km
Zákl. oblačnosti: 8/8 120 m
Vlhkost: 100%
Křešín - Kramolín (Kramolin) 20.11.2019 02:00 UTC Zobrazit data
Místo: Křešín - Kramolín
Teplota: 7 °C (pocitová: 2 °C)
Vítr: 3 m/s z(e) 160°
Počasí: zataženo
Dohlednost: 9 km
Zákl. oblačnosti: 8/8 270 m
Vlhkost: 87%
Kuchařovice - Znojmo (Kucharovic) 20.11.2019 02:00 UTC Zobrazit data
Místo: Kuchařovice - Znojmo
Teplota: 7 °C (pocitová: 3.1 °C)
Vítr: 2 m/s z(e) 120°
Počasí: zataženo
Dohlednost: 1600 m
Zákl. oblačnosti: 8/8 60 m
Vlhkost: 100%
Liberec (Liberec) 20.11.2019 02:00 UTC Zobrazit data
Místo: Liberec
Teplota: 5 °C (pocitová: 0.5 °C)
Vítr: 2 m/s z(e) 300°
Počasí: zataženo
Dohlednost: 13 km
Zákl. oblačnosti: 8/8 390 m
Vlhkost: 87%
Luká (Luka) 20.11.2019 02:00 UTC Zobrazit data
Místo: Luká
Teplota: 8 °C (pocitová: 3.3 °C)
Vítr: 3 m/s z(e) 130°
Počasí: zataženo
Dohlednost: 15 km
Zákl. oblačnosti: 8/8 360 m
Vlhkost: 87%
Lysá Hora (Lysa Hora) 20.11.2019 02:00 UTC Zobrazit data
Místo: Lysá Hora
Teplota: 3 °C (pocitová: -7.8 °C)
Vítr: 12 m/s z(e) 160°
Počasí: zataženo
Dohlednost: 14 km
Zákl. oblačnosti: 8/8 5700 m
Vlhkost: 93%
Milešovka (Milesovka) 19.11.2019 22:00 UTC Zobrazit data
Místo: Milešovka
Teplota: 2 °C (pocitová: -7.5 °C)
Vítr: 7 m/s z(e) 50°
Počasí: zataženo
Dohlednost: 15 km
Zákl. oblačnosti: 8/8 90 m
Vlhkost: 93%
Mošnov (Ostrava/Mo) 20.11.2019 02:00 UTC Zobrazit data
Místo: Mošnov
Teplota: 4 °C (pocitová: 0.6 °C)
Vítr: 1 m/s z(e) 0°
Počasí: skoro zataženo
Dohlednost: 20 km
Zákl. oblačnosti: 7/8 6900 m
Vlhkost: 93%
Náměšť nad Oslavou (Namest n/O) 20.11.2019 02:00 UTC Zobrazit data
Místo: Náměšť nad Oslavou
Teplota: 7 °C (pocitová: 1.2 °C)
Vítr: 4 m/s z(e) 130°
Počasí: zataženo
Dohlednost: 2300 m
Zákl. oblačnosti: 8/8 60 m
Vlhkost: 93%
Pardubice (Pardubice) 20.11.2019 02:00 UTC Zobrazit data
Místo: Pardubice
Teplota: 7 °C (pocitová: 4.3 °C)
Vítr: 1 m/s z(e) 60°
Počasí: zataženo
Dohlednost: 10 km
Zákl. oblačnosti: 8/8 720 m
Vlhkost: 93%
Pec pod Sněžkou (Pec p.Snez) 20.11.2019 02:00 UTC Zobrazit data
Místo: Pec pod Sněžkou
Teplota: 6 °C (pocitová: 1.8 °C)
Vítr: 2 m/s z(e) 250°
Počasí: zataženo
Dohlednost: 15 km
Zákl. oblačnosti: 8/8 210 m
Vlhkost: 87%
Plzeň město - Mikulka (Plzen/Miku) 20.11.2019 02:00 UTC Zobrazit data
Místo: Plzeň město - Mikulka
Teplota: 4 °C (pocitová: -0.8 °C)
Vítr: 2 m/s z(e) 200°
Počasí: zataženo
Dohlednost: 16 km
Zákl. oblačnosti: 8/8 540 m
Vlhkost: 93%
Polom (Polom) 20.11.2019 02:00 UTC Zobrazit data
Místo: Polom
Teplota: 6 °C (pocitová: -1.7 °C)
Vítr: 7 m/s z(e) 180°
Počasí: skoro zataženo
Dohlednost: 12 km
Zákl. oblačnosti: 2/8 270 m;5/8 6000 m
Vlhkost: 93%
Praha - Karlov (Praha/Kar) 20.11.2019 02:00 UTC Zobrazit data
Místo: Praha - Karlov
Teplota: 6 °C (pocitová: 1.8 °C)
Vítr: 2 m/s z(e) 210°
Počasí: zataženo
Dohlednost: 13 km
Zákl. oblačnosti: 8/8 420 m
Vlhkost: 81%
Praha - Kbely (Praha/Kbe) 20.11.2019 02:00 UTC Zobrazit data
Místo: Praha - Kbely
Teplota: 6 °C (pocitová: 0.7 °C)
Vítr: 3 m/s z(e) 230°
Počasí: zataženo
Dohlednost: 10 km
Zákl. oblačnosti: 3/8 420 m;8/8 660 m
Vlhkost: 81%
Praha - Libuš (Praha/Lib) 20.11.2019 02:00 UTC Zobrazit data
Místo: Praha - Libuš
Teplota: 5 °C (pocitová: 1.8 °C)
Vítr: 1 m/s z(e) 0°
Počasí: zataženo
Dohlednost: 8 km
Zákl. oblačnosti: 8/8 300 m
Vlhkost: 87%
Praha - Ruzyně (Praha/Ru) 20.11.2019 02:00 UTC Zobrazit data
Místo: Praha - Ruzyně
Teplota: 4 °C (pocitová: -0.8 °C)
Vítr: 2 m/s z(e) 230°
Počasí: zataženo
Dohlednost: 9 km
Zákl. oblačnosti: 3/8 270 m;8/8 450 m
Vlhkost: 93%
Přibyslav (Pribyslav) 20.11.2019 02:00 UTC Zobrazit data
Místo: Přibyslav
Teplota: 7 °C (pocitová: -0.3 °C)
Vítr: 7 m/s z(e) 140°
Počasí: zataženo
Dohlednost: 7 km
Zákl. oblačnosti: 7/8 300 m
Vlhkost: 87%
Přimda (Primda) 20.11.2019 02:00 UTC Zobrazit data
Místo: Přimda
Teplota: 1 °C (pocitová: -3.1 °C)
Vítr: 1 m/s z(e) 280°
Počasí: zataženo
Dohlednost: 13 km
Zákl. oblačnosti: 7/8 540 m;8/8 2400 m
Vlhkost: 100%
Šerák (Serak) 20.11.2019 02:00 UTC Zobrazit data
Místo: Šerák
Teplota: 3 °C (pocitová: -6.5 °C)
Vítr: 8 m/s z(e) 210°
Počasí: déšť
Dohlednost: 200 m
Zákl. oblačnosti: 8/8 30 m
Vlhkost: 100%
Svratouch (Svratouch) 20.11.2019 02:00 UTC Zobrazit data
Místo: Svratouch
Teplota: 6 °C (pocitová: -2.6 °C)
Vítr: 10 m/s z(e) 180°
Počasí: zataženo
Dohlednost: 8 km
Zákl. oblačnosti: 7/8 180 m
Vlhkost: 93%
Temelín (Temelin) 20.11.2019 02:00 UTC Zobrazit data
Místo: Temelín
Teplota: 3 °C (pocitová: -0.6 °C)
Vítr: 1 m/s z(e) 250°
Počasí: zataženo
Dohlednost: 6 km
Zákl. oblačnosti: 8/8 240 m
Vlhkost: 100%
Ústí nad Labem - Kočkov (Usti n/L) 20.11.2019 02:00 UTC Zobrazit data
Místo: Ústí nad Labem - Kočkov
Teplota: 4 °C (pocitová: 0.6 °C)
Vítr: 1 m/s z(e) 90°
Počasí: zataženo
Dohlednost: 5 km
Zákl. oblačnosti: 8/8 180 m
Vlhkost: 93%
Ústí nad Orlicí (Usti n/O) 20.11.2019 02:00 UTC Zobrazit data
Místo: Ústí nad Orlicí
Teplota: 8 °C (pocitová: 1.6 °C)
Vítr: 6 m/s z(e) 110°
Počasí: skoro zataženo
Dohlednost: 13 km
Zákl. oblačnosti: 5/8 570 m
Vlhkost: 87%
Aalborg (EKYT) 20.11.2019 01:50 UTC Zobrazit METAR
EKYT 200150Z 22003KT 1800 BR FEW012 OVC018 06/06 Q1016
Aarhus (EKAH) 15.11.2019 15:50 UTC Zobrazit METAR
EKAH 151550Z 08017KT 9999 SCT020 BKN028 08/05 Q1012
Abu Dhabi (OMAA) 20.11.2019 02:00 UTC Zobrazit METAR
OMAA 200200Z 01006KT 8000 FEW035 23/19 Q1012 WS ALL RWY TEMPO VRB30G45KT 1500 TSRA BLDU FEW040CB DIST CB TO W
Abuja (DNAA) 20.11.2019 02:00 UTC Zobrazit METAR
DNAA 200200Z 10004KT CAVOK 24/22 Q1011 NOSIG
Accra (DGAA) 20.11.2019 02:00 UTC Zobrazit METAR
DGAA 200200Z 27005KT 9999 FEW017 27/25 Q1009 NOSIG
Addis Abeba (HAAB) 19.11.2019 23:00 UTC Zobrazit METAR
HAAB 192300Z 09004KT 9999 BKN026 15/10 Q1024
Agana (PGUM) 20.11.2019 01:54 UTC Zobrazit METAR
PGUM 200154Z 10008KT 10SM FEW023 FEW045 31/24 A2987 RMK AO2 SLP107 T03060244
Ahe Island (NTHE) Zatím nenačteno  
Akureyri (BIAR) 20.11.2019 01:00 UTC Zobrazit METAR
BIAR 200100Z VRB02KT CAVOK 00/M04 Q1009
Almaty (UAAA) Zatím nenačteno  
Amman (OJAM) 20.11.2019 02:00 UTC Zobrazit METAR
OJAM 200200Z 13002KT 6000 NSC 06/M01 Q1021 NOSIG
Amsterdam (EHAM) 20.11.2019 01:55 UTC Zobrazit METAR
EHAM 200155Z 14003KT 9999 MIFG NSC M00/M01 Q1019 NOSIG
Antananarivo (FMMI) 20.11.2019 02:00 UTC Zobrazit METAR
FMMI 200200Z 15003KT 120V200 9999 FEW020 19/17 Q1019 NOSIG
1 2 3 ... 9 Další
Reklama

Počasí na Váš email

Emaily jsou bez reklamy a bez spamu



Odhlásit newsletter

Reklama


Lunární kalendář

  • 26.11.
  • 04.12.
  • 12.12.
  • 19.12.



Reklama


Reklama
Povinné ručení
Reklama



Reklama